sensor_id;sensor_type;location;lat;lon;timestamp;P1;durP1;ratioP1;P2;durP2;ratioP2
54959;SDS011;40860;51.710;8.736;2023-02-28T00:00:49;5.72;;;3.78;;
54959;SDS011;40860;51.710;8.736;2023-02-28T00:04:53;4.70;;;3.50;;
54959;SDS011;40860;51.710;8.736;2023-02-28T00:09:02;4.32;;;3.03;;
54959;SDS011;40860;51.710;8.736;2023-02-28T00:13:07;4.88;;;3.50;;
54959;SDS011;40860;51.710;8.736;2023-02-28T00:17:10;5.38;;;3.35;;
54959;SDS011;40860;51.710;8.736;2023-02-28T00:21:14;6.55;;;3.08;;
54959;SDS011;40860;51.710;8.736;2023-02-28T00:25:19;3.33;;;2.88;;
54959;SDS011;40860;51.710;8.736;2023-02-28T00:29:23;4.53;;;2.92;;
54959;SDS011;40860;51.710;8.736;2023-02-28T00:33:26;4.43;;;2.72;;
54959;SDS011;40860;51.710;8.736;2023-02-28T00:37:31;4.75;;;3.10;;
54959;SDS011;40860;51.710;8.736;2023-02-28T00:41:34;2.80;;;2.20;;
54959;SDS011;40860;51.710;8.736;2023-02-28T00:45:39;2.83;;;2.50;;
54959;SDS011;40860;51.710;8.736;2023-02-28T00:49:42;3.05;;;2.15;;
54959;SDS011;40860;51.710;8.736;2023-02-28T00:53:46;3.25;;;2.45;;
54959;SDS011;40860;51.710;8.736;2023-02-28T00:57:50;4.82;;;2.50;;
54959;SDS011;40860;51.710;8.736;2023-02-28T01:01:53;4.40;;;2.30;;
54959;SDS011;40860;51.710;8.736;2023-02-28T01:05:56;3.55;;;2.47;;
54959;SDS011;40860;51.710;8.736;2023-02-28T01:10:00;2.45;;;2.17;;
54959;SDS011;40860;51.710;8.736;2023-02-28T01:14:03;3.20;;;2.40;;
54959;SDS011;40860;51.710;8.736;2023-02-28T01:18:06;4.22;;;2.55;;
54959;SDS011;40860;51.710;8.736;2023-02-28T01:22:09;4.03;;;2.60;;
54959;SDS011;40860;51.710;8.736;2023-02-28T01:26:14;2.47;;;2.13;;
54959;SDS011;40860;51.710;8.736;2023-02-28T01:30:18;3.83;;;2.22;;
54959;SDS011;40860;51.710;8.736;2023-02-28T01:34:21;3.80;;;2.03;;
54959;SDS011;40860;51.710;8.736;2023-02-28T01:38:25;2.95;;;2.30;;
54959;SDS011;40860;51.710;8.736;2023-02-28T01:42:29;2.58;;;2.13;;
54959;SDS011;40860;51.710;8.736;2023-02-28T01:46:33;2.65;;;2.00;;
54959;SDS011;40860;51.710;8.736;2023-02-28T01:50:38;2.85;;;2.28;;
54959;SDS011;40860;51.710;8.736;2023-02-28T01:54:44;5.88;;;2.80;;
54959;SDS011;40860;51.710;8.736;2023-02-28T01:58:53;2.60;;;1.88;;
54959;SDS011;40860;51.710;8.736;2023-02-28T02:02:57;3.03;;;1.90;;
54959;SDS011;40860;51.710;8.736;2023-02-28T02:07:03;2.72;;;1.95;;
54959;SDS011;40860;51.710;8.736;2023-02-28T02:11:07;3.45;;;2.22;;
54959;SDS011;40860;51.710;8.736;2023-02-28T02:15:16;2.90;;;2.10;;
54959;SDS011;40860;51.710;8.736;2023-02-28T02:19:35;2.15;;;1.70;;
54959;SDS011;40860;51.710;8.736;2023-02-28T02:23:59;4.13;;;2.10;;
54959;SDS011;40860;51.710;8.736;2023-02-28T02:28:20;2.75;;;2.25;;
54959;SDS011;40860;51.710;8.736;2023-02-28T02:32:56;4.05;;;2.13;;
54959;SDS011;40860;51.710;8.736;2023-02-28T02:37:13;3.10;;;1.98;;
54959;SDS011;40860;51.710;8.736;2023-02-28T02:41:23;2.63;;;2.25;;
54959;SDS011;40860;51.710;8.736;2023-02-28T02:45:31;2.60;;;2.03;;
54959;SDS011;40860;51.710;8.736;2023-02-28T02:49:38;3.70;;;2.40;;
54959;SDS011;40860;51.710;8.736;2023-02-28T02:53:46;2.35;;;2.15;;
54959;SDS011;40860;51.710;8.736;2023-02-28T02:57:52;2.55;;;1.95;;
54959;SDS011;40860;51.710;8.736;2023-02-28T03:02:00;3.42;;;2.40;;
54959;SDS011;40860;51.710;8.736;2023-02-28T03:06:06;2.40;;;2.15;;
54959;SDS011;40860;51.710;8.736;2023-02-28T03:10:30;3.13;;;2.50;;
54959;SDS011;40860;51.710;8.736;2023-02-28T03:14:46;5.22;;;2.58;;
54959;SDS011;40860;51.710;8.736;2023-02-28T03:19:03;2.67;;;2.30;;
54959;SDS011;40860;51.710;8.736;2023-02-28T03:23:19;2.65;;;2.15;;
54959;SDS011;40860;51.710;8.736;2023-02-28T03:27:27;4.95;;;2.45;;
54959;SDS011;40860;51.710;8.736;2023-02-28T03:31:33;4.80;;;2.75;;
54959;SDS011;40860;51.710;8.736;2023-02-28T03:35:41;11.27;;;2.40;;
54959;SDS011;40860;51.710;8.736;2023-02-28T03:39:49;2.40;;;2.15;;
54959;SDS011;40860;51.710;8.736;2023-02-28T03:43:59;3.08;;;2.20;;
54959;SDS011;40860;51.710;8.736;2023-02-28T03:48:06;2.20;;;2.00;;
54959;SDS011;40860;51.710;8.736;2023-02-28T03:52:14;3.35;;;2.17;;
54959;SDS011;40860;51.710;8.736;2023-02-28T03:56:22;4.25;;;2.92;;
54959;SDS011;40860;51.710;8.736;2023-02-28T04:00:31;3.33;;;2.22;;
54959;SDS011;40860;51.710;8.736;2023-02-28T04:04:39;2.33;;;2.05;;
54959;SDS011;40860;51.710;8.736;2023-02-28T04:08:49;2.40;;;2.00;;
54959;SDS011;40860;51.710;8.736;2023-02-28T04:12:52;2.67;;;1.80;;
54959;SDS011;40860;51.710;8.736;2023-02-28T04:16:56;2.17;;;1.90;;
54959;SDS011;40860;51.710;8.736;2023-02-28T04:20:59;4.32;;;2.20;;
54959;SDS011;40860;51.710;8.736;2023-02-28T04:25:03;3.03;;;1.90;;
54959;SDS011;40860;51.710;8.736;2023-02-28T04:29:06;3.35;;;2.15;;
54959;SDS011;40860;51.710;8.736;2023-02-28T04:33:10;2.50;;;2.20;;
54959;SDS011;40860;51.710;8.736;2023-02-28T04:37:13;4.78;;;2.30;;
54959;SDS011;40860;51.710;8.736;2023-02-28T04:41:16;3.70;;;2.28;;
54959;SDS011;40860;51.710;8.736;2023-02-28T04:45:19;2.58;;;2.05;;
54959;SDS011;40860;51.710;8.736;2023-02-28T04:49:23;2.65;;;2.40;;
54959;SDS011;40860;51.710;8.736;2023-02-28T04:53:26;3.38;;;3.08;;
54959;SDS011;40860;51.710;8.736;2023-02-28T04:57:30;4.97;;;3.15;;
54959;SDS011;40860;51.710;8.736;2023-02-28T05:01:33;5.78;;;3.05;;
54959;SDS011;40860;51.710;8.736;2023-02-28T05:05:38;3.10;;;2.78;;
54959;SDS011;40860;51.710;8.736;2023-02-28T05:09:41;4.75;;;2.55;;
54959;SDS011;40860;51.710;8.736;2023-02-28T05:13:44;3.22;;;2.75;;
54959;SDS011;40860;51.710;8.736;2023-02-28T05:17:47;4.32;;;2.72;;
54959;SDS011;40860;51.710;8.736;2023-02-28T05:21:52;3.78;;;2.67;;
54959;SDS011;40860;51.710;8.736;2023-02-28T05:25:56;3.72;;;2.58;;
54959;SDS011;40860;51.710;8.736;2023-02-28T05:29:59;2.55;;;2.35;;
54959;SDS011;40860;51.710;8.736;2023-02-28T05:34:04;4.07;;;2.30;;
54959;SDS011;40860;51.710;8.736;2023-02-28T05:38:09;5.20;;;2.53;;
54959;SDS011;40860;51.710;8.736;2023-02-28T05:42:12;5.70;;;2.63;;
54959;SDS011;40860;51.710;8.736;2023-02-28T05:46:15;5.32;;;3.22;;
54959;SDS011;40860;51.710;8.736;2023-02-28T05:50:18;3.35;;;2.80;;
54959;SDS011;40860;51.710;8.736;2023-02-28T05:54:22;2.70;;;2.47;;
54959;SDS011;40860;51.710;8.736;2023-02-28T05:58:25;3.83;;;2.65;;
54959;SDS011;40860;51.710;8.736;2023-02-28T06:02:31;3.60;;;2.80;;
54959;SDS011;40860;51.710;8.736;2023-02-28T06:06:34;3.55;;;2.50;;
54959;SDS011;40860;51.710;8.736;2023-02-28T06:10:42;5.25;;;2.40;;
54959;SDS011;40860;51.710;8.736;2023-02-28T06:14:46;4.82;;;3.15;;
54959;SDS011;40860;51.710;8.736;2023-02-28T06:18:48;2.58;;;2.08;;
54959;SDS011;40860;51.710;8.736;2023-02-28T06:22:51;6.85;;;2.53;;
54959;SDS011;40860;51.710;8.736;2023-02-28T06:26:57;3.67;;;2.90;;
54959;SDS011;40860;51.710;8.736;2023-02-28T06:31:04;5.32;;;3.40;;
54959;SDS011;40860;51.710;8.736;2023-02-28T06:35:09;4.03;;;3.10;;
54959;SDS011;40860;51.710;8.736;2023-02-28T06:39:12;5.03;;;4.07;;
54959;SDS011;40860;51.710;8.736;2023-02-28T06:43:16;3.17;;;2.88;;
54959;SDS011;40860;51.710;8.736;2023-02-28T06:47:19;4.90;;;2.97;;
54959;SDS011;40860;51.710;8.736;2023-02-28T06:51:22;7.75;;;4.55;;
54959;SDS011;40860;51.710;8.736;2023-02-28T06:55:25;3.63;;;2.67;;
54959;SDS011;40860;51.710;8.736;2023-02-28T06:59:32;3.83;;;3.03;;
54959;SDS011;40860;51.710;8.736;2023-02-28T07:03:36;4.53;;;3.35;;
54959;SDS011;40860;51.710;8.736;2023-02-28T07:07:39;3.72;;;2.90;;
54959;SDS011;40860;51.710;8.736;2023-02-28T07:11:44;8.15;;;3.47;;
54959;SDS011;40860;51.710;8.736;2023-02-28T07:15:54;4.07;;;3.20;;
54959;SDS011;40860;51.710;8.736;2023-02-28T07:19:58;2.90;;;2.42;;
54959;SDS011;40860;51.710;8.736;2023-02-28T07:24:00;6.38;;;3.03;;
54959;SDS011;40860;51.710;8.736;2023-02-28T07:28:03;5.80;;;2.95;;
54959;SDS011;40860;51.710;8.736;2023-02-28T07:32:08;3.20;;;2.40;;
54959;SDS011;40860;51.710;8.736;2023-02-28T07:36:12;5.40;;;2.22;;
54959;SDS011;40860;51.710;8.736;2023-02-28T07:40:16;3.22;;;2.13;;
54959;SDS011;40860;51.710;8.736;2023-02-28T07:44:19;2.38;;;2.00;;
54959;SDS011;40860;51.710;8.736;2023-02-28T07:48:29;7.10;;;2.30;;
54959;SDS011;40860;51.710;8.736;2023-02-28T07:52:32;3.78;;;2.20;;
54959;SDS011;40860;51.710;8.736;2023-02-28T07:56:35;3.15;;;2.10;;
54959;SDS011;40860;51.710;8.736;2023-02-28T08:00:38;2.75;;;2.08;;
54959;SDS011;40860;51.710;8.736;2023-02-28T08:04:42;4.18;;;2.60;;
54959;SDS011;40860;51.710;8.736;2023-02-28T08:08:45;5.65;;;2.58;;
54959;SDS011;40860;51.710;8.736;2023-02-28T08:12:49;6.25;;;3.25;;
54959;SDS011;40860;51.710;8.736;2023-02-28T08:16:52;4.15;;;3.20;;
54959;SDS011;40860;51.710;8.736;2023-02-28T08:20:56;3.85;;;2.78;;
54959;SDS011;40860;51.710;8.736;2023-02-28T08:25:00;4.50;;;2.83;;
54959;SDS011;40860;51.710;8.736;2023-02-28T08:29:03;3.88;;;3.00;;
54959;SDS011;40860;51.710;8.736;2023-02-28T08:33:06;2.80;;;2.20;;
54959;SDS011;40860;51.710;8.736;2023-02-28T08:37:16;3.08;;;2.63;;
54959;SDS011;40860;51.710;8.736;2023-02-28T08:41:19;4.50;;;2.60;;
54959;SDS011;40860;51.710;8.736;2023-02-28T08:45:22;3.60;;;3.00;;
54959;SDS011;40860;51.710;8.736;2023-02-28T08:49:25;4.13;;;2.67;;
54959;SDS011;40860;51.710;8.736;2023-02-28T08:53:29;3.45;;;2.90;;
54959;SDS011;40860;51.710;8.736;2023-02-28T08:57:33;4.93;;;2.67;;
54959;SDS011;40860;51.710;8.736;2023-02-28T09:01:36;2.72;;;2.42;;
54959;SDS011;40860;51.710;8.736;2023-02-28T09:05:39;6.43;;;3.10;;
54959;SDS011;40860;51.710;8.736;2023-02-28T09:09:43;5.45;;;2.88;;
54959;SDS011;40860;51.710;8.736;2023-02-28T09:13:55;4.85;;;3.47;;
54959;SDS011;40860;51.710;8.736;2023-02-28T09:18:00;4.35;;;2.58;;
54959;SDS011;40860;51.710;8.736;2023-02-28T09:22:03;3.10;;;2.50;;
54959;SDS011;40860;51.710;8.736;2023-02-28T09:26:07;4.68;;;2.70;;
54959;SDS011;40860;51.710;8.736;2023-02-28T09:30:14;12.77;;;3.10;;
54959;SDS011;40860;51.710;8.736;2023-02-28T09:34:18;3.50;;;2.40;;
54959;SDS011;40860;51.710;8.736;2023-02-28T09:38:21;9.45;;;2.80;;
54959;SDS011;40860;51.710;8.736;2023-02-28T09:42:27;2.65;;;2.13;;
54959;SDS011;40860;51.710;8.736;2023-02-28T09:46:34;3.10;;;2.33;;
54959;SDS011;40860;51.710;8.736;2023-02-28T09:50:43;6.78;;;3.22;;
54959;SDS011;40860;51.710;8.736;2023-02-28T09:54:50;3.88;;;2.55;;
54959;SDS011;40860;51.710;8.736;2023-02-28T09:58:55;17.98;;;3.63;;
54959;SDS011;40860;51.710;8.736;2023-02-28T10:03:06;4.78;;;2.70;;
54959;SDS011;40860;51.710;8.736;2023-02-28T10:07:21;9.88;;;2.92;;
54959;SDS011;40860;51.710;8.736;2023-02-28T10:11:32;3.15;;;2.40;;
54959;SDS011;40860;51.710;8.736;2023-02-28T10:15:37;10.20;;;3.50;;
54959;SDS011;40860;51.710;8.736;2023-02-28T10:19:42;3.47;;;2.40;;
54959;SDS011;40860;51.710;8.736;2023-02-28T10:23:52;4.30;;;2.47;;
54959;SDS011;40860;51.710;8.736;2023-02-28T10:28:07;4.30;;;2.83;;
54959;SDS011;40860;51.710;8.736;2023-02-28T10:32:15;2.38;;;2.17;;
54959;SDS011;40860;51.710;8.736;2023-02-28T10:36:20;4.43;;;2.22;;
54959;SDS011;40860;51.710;8.736;2023-02-28T10:40:28;2.80;;;2.35;;
54959;SDS011;40860;51.710;8.736;2023-02-28T10:44:32;3.65;;;2.50;;
54959;SDS011;40860;51.710;8.736;2023-02-28T10:48:38;4.30;;;2.80;;
54959;SDS011;40860;51.710;8.736;2023-02-28T10:52:43;6.07;;;3.22;;
54959;SDS011;40860;51.710;8.736;2023-02-28T10:56:59;4.57;;;2.70;;
54959;SDS011;40860;51.710;8.736;2023-02-28T11:01:12;15.60;;;4.00;;
54959;SDS011;40860;51.710;8.736;2023-02-28T11:05:28;5.50;;;3.55;;
54959;SDS011;40860;51.710;8.736;2023-02-28T11:09:33;8.77;;;4.38;;
54959;SDS011;40860;51.710;8.736;2023-02-28T11:13:37;4.50;;;3.47;;
54959;SDS011;40860;51.710;8.736;2023-02-28T11:17:40;7.82;;;3.33;;
54959;SDS011;40860;51.710;8.736;2023-02-28T11:21:47;3.55;;;2.90;;
54959;SDS011;40860;51.710;8.736;2023-02-28T11:25:58;5.47;;;3.35;;
54959;SDS011;40860;51.710;8.736;2023-02-28T11:30:22;4.30;;;3.80;;
54959;SDS011;40860;51.710;8.736;2023-02-28T11:34:27;6.55;;;3.67;;
54959;SDS011;40860;51.710;8.736;2023-02-28T11:38:32;4.32;;;3.20;;
54959;SDS011;40860;51.710;8.736;2023-02-28T11:42:44;7.32;;;4.18;;
54959;SDS011;40860;51.710;8.736;2023-02-28T11:46:59;4.65;;;3.40;;
54959;SDS011;40860;51.710;8.736;2023-02-28T11:51:09;4.95;;;3.40;;
54959;SDS011;40860;51.710;8.736;2023-02-28T12:10:26;4.80;;;3.63;;
54959;SDS011;40860;51.710;8.736;2023-02-28T12:14:39;5.38;;;3.53;;
54959;SDS011;40860;51.710;8.736;2023-02-28T12:19:05;8.55;;;3.22;;
54959;SDS011;40860;51.710;8.736;2023-02-28T12:23:19;3.47;;;2.70;;
54959;SDS011;40860;51.710;8.736;2023-02-28T12:27:34;5.63;;;2.80;;
54959;SDS011;40860;51.710;8.736;2023-02-28T12:31:43;9.38;;;3.45;;
54959;SDS011;40860;51.710;8.736;2023-02-28T12:35:55;3.33;;;2.70;;
54959;SDS011;40860;51.710;8.736;2023-02-28T12:40:00;3.50;;;2.75;;
54959;SDS011;40860;51.710;8.736;2023-02-28T12:44:11;3.47;;;2.80;;
54959;SDS011;40860;51.710;8.736;2023-02-28T12:48:19;3.40;;;2.83;;
54959;SDS011;40860;51.710;8.736;2023-02-28T12:52:28;4.35;;;3.10;;
54959;SDS011;40860;51.710;8.736;2023-02-28T12:56:51;5.90;;;3.10;;
54959;SDS011;40860;51.710;8.736;2023-02-28T13:01:13;5.70;;;3.20;;
54959;SDS011;40860;51.710;8.736;2023-02-28T13:05:42;5.75;;;2.55;;
54959;SDS011;40860;51.710;8.736;2023-02-28T13:10:07;2.90;;;2.60;;
54959;SDS011;40860;51.710;8.736;2023-02-28T13:14:22;3.28;;;2.53;;
54959;SDS011;40860;51.710;8.736;2023-02-28T13:18:32;6.20;;;2.67;;
54959;SDS011;40860;51.710;8.736;2023-02-28T13:22:39;5.93;;;3.10;;
54959;SDS011;40860;51.710;8.736;2023-02-28T13:36:21;4.25;;;2.72;;
54959;SDS011;40860;51.710;8.736;2023-02-28T13:40:30;5.22;;;2.88;;
54959;SDS011;40860;51.710;8.736;2023-02-28T13:49:18;3.97;;;3.10;;
54959;SDS011;40860;51.710;8.736;2023-02-28T13:57:55;6.57;;;2.72;;
54959;SDS011;40860;51.710;8.736;2023-02-28T14:02:17;13.75;;;3.63;;
54959;SDS011;40860;51.710;8.736;2023-02-28T14:06:34;4.07;;;3.15;;
54959;SDS011;40860;51.710;8.736;2023-02-28T14:10:46;4.97;;;2.88;;
54959;SDS011;40860;51.710;8.736;2023-02-28T14:14:54;9.00;;;3.42;;
54959;SDS011;40860;51.710;8.736;2023-02-28T14:19:01;2.92;;;2.47;;
54959;SDS011;40860;51.710;8.736;2023-02-28T14:23:13;5.68;;;2.97;;
54959;SDS011;40860;51.710;8.736;2023-02-28T14:27:26;3.30;;;2.75;;
54959;SDS011;40860;51.710;8.736;2023-02-28T14:31:37;7.85;;;3.60;;
54959;SDS011;40860;51.710;8.736;2023-02-28T14:35:50;3.30;;;2.92;;
54959;SDS011;40860;51.710;8.736;2023-02-28T14:40:11;3.40;;;2.90;;
54959;SDS011;40860;51.710;8.736;2023-02-28T14:44:21;3.25;;;2.95;;
54959;SDS011;40860;51.710;8.736;2023-02-28T14:48:30;3.88;;;2.80;;
54959;SDS011;40860;51.710;8.736;2023-02-28T14:52:36;4.30;;;2.90;;
54959;SDS011;40860;51.710;8.736;2023-02-28T14:56:39;3.75;;;2.83;;
54959;SDS011;40860;51.710;8.736;2023-02-28T15:00:48;3.13;;;2.83;;
54959;SDS011;40860;51.710;8.736;2023-02-28T15:04:53;4.00;;;2.90;;
54959;SDS011;40860;51.710;8.736;2023-02-28T15:09:09;3.42;;;2.92;;
54959;SDS011;40860;51.710;8.736;2023-02-28T15:13:13;7.43;;;3.03;;
54959;SDS011;40860;51.710;8.736;2023-02-28T15:17:20;6.28;;;3.47;;
54959;SDS011;40860;51.710;8.736;2023-02-28T15:21:27;4.43;;;3.58;;
54959;SDS011;40860;51.710;8.736;2023-02-28T15:25:33;5.88;;;3.38;;
54959;SDS011;40860;51.710;8.736;2023-02-28T15:29:41;7.32;;;2.97;;
54959;SDS011;40860;51.710;8.736;2023-02-28T15:33:53;5.35;;;3.53;;
54959;SDS011;40860;51.710;8.736;2023-02-28T15:37:57;4.63;;;3.20;;
54959;SDS011;40860;51.710;8.736;2023-02-28T15:42:09;5.80;;;3.22;;
54959;SDS011;40860;51.710;8.736;2023-02-28T15:46:13;3.95;;;2.88;;
54959;SDS011;40860;51.710;8.736;2023-02-28T15:50:20;4.72;;;2.90;;
54959;SDS011;40860;51.710;8.736;2023-02-28T15:54:26;4.22;;;3.17;;
54959;SDS011;40860;51.710;8.736;2023-02-28T15:58:30;5.38;;;3.85;;
54959;SDS011;40860;51.710;8.736;2023-02-28T16:02:35;3.78;;;2.80;;
54959;SDS011;40860;51.710;8.736;2023-02-28T16:06:41;4.13;;;3.17;;
54959;SDS011;40860;51.710;8.736;2023-02-28T16:10:44;3.15;;;2.80;;
54959;SDS011;40860;51.710;8.736;2023-02-28T16:14:47;4.22;;;2.83;;
54959;SDS011;40860;51.710;8.736;2023-02-28T16:18:57;3.50;;;3.20;;
54959;SDS011;40860;51.710;8.736;2023-02-28T16:23:02;3.83;;;3.40;;
54959;SDS011;40860;51.710;8.736;2023-02-28T16:27:05;4.22;;;3.10;;
54959;SDS011;40860;51.710;8.736;2023-02-28T16:35:18;3.30;;;3.00;;
54959;SDS011;40860;51.710;8.736;2023-02-28T16:39:22;3.75;;;3.30;;
54959;SDS011;40860;51.710;8.736;2023-02-28T16:43:25;5.80;;;3.63;;
54959;SDS011;40860;51.710;8.736;2023-02-28T16:47:29;4.97;;;3.40;;
54959;SDS011;40860;51.710;8.736;2023-02-28T16:51:33;4.53;;;3.63;;
54959;SDS011;40860;51.710;8.736;2023-02-28T16:55:41;4.43;;;3.70;;
54959;SDS011;40860;51.710;8.736;2023-02-28T16:59:46;4.38;;;3.55;;
54959;SDS011;40860;51.710;8.736;2023-02-28T17:03:49;5.13;;;3.58;;
54959;SDS011;40860;51.710;8.736;2023-02-28T17:07:52;4.30;;;3.63;;
54959;SDS011;40860;51.710;8.736;2023-02-28T17:11:56;5.95;;;4.63;;
54959;SDS011;40860;51.710;8.736;2023-02-28T17:16:01;3.83;;;3.42;;
54959;SDS011;40860;51.710;8.736;2023-02-28T17:20:05;7.20;;;4.10;;
54959;SDS011;40860;51.710;8.736;2023-02-28T17:24:09;5.75;;;4.22;;
54959;SDS011;40860;51.710;8.736;2023-02-28T17:28:21;5.75;;;4.13;;
54959;SDS011;40860;51.710;8.736;2023-02-28T17:32:24;5.93;;;4.35;;
54959;SDS011;40860;51.710;8.736;2023-02-28T17:36:27;8.50;;;4.40;;
54959;SDS011;40860;51.710;8.736;2023-02-28T17:40:30;6.50;;;4.68;;
54959;SDS011;40860;51.710;8.736;2023-02-28T17:44:36;8.35;;;5.00;;
54959;SDS011;40860;51.710;8.736;2023-02-28T17:48:39;4.80;;;4.25;;
54959;SDS011;40860;51.710;8.736;2023-02-28T17:52:42;10.98;;;6.38;;
54959;SDS011;40860;51.710;8.736;2023-02-28T17:56:45;13.98;;;8.07;;
54959;SDS011;40860;51.710;8.736;2023-02-28T18:00:49;6.55;;;5.05;;
54959;SDS011;40860;51.710;8.736;2023-02-28T18:04:56;9.05;;;5.43;;
54959;SDS011;40860;51.710;8.736;2023-02-28T18:08:59;5.85;;;5.20;;
54959;SDS011;40860;51.710;8.736;2023-02-28T18:13:02;6.40;;;5.20;;
54959;SDS011;40860;51.710;8.736;2023-02-28T18:17:06;6.93;;;5.10;;
54959;SDS011;40860;51.710;8.736;2023-02-28T18:21:10;7.10;;;4.97;;
54959;SDS011;40860;51.710;8.736;2023-02-28T18:25:14;8.45;;;6.35;;
54959;SDS011;40860;51.710;8.736;2023-02-28T18:29:19;10.02;;;5.78;;
54959;SDS011;40860;51.710;8.736;2023-02-28T18:33:25;10.25;;;6.88;;
54959;SDS011;40860;51.710;8.736;2023-02-28T18:37:27;9.27;;;5.65;;
54959;SDS011;40860;51.710;8.736;2023-02-28T18:41:30;10.02;;;6.00;;
54959;SDS011;40860;51.710;8.736;2023-02-28T18:45:34;13.45;;;6.30;;
54959;SDS011;40860;51.710;8.736;2023-02-28T18:49:40;8.68;;;5.45;;
54959;SDS011;40860;51.710;8.736;2023-02-28T18:53:44;10.85;;;6.32;;
54959;SDS011;40860;51.710;8.736;2023-02-28T18:57:47;7.22;;;6.32;;
54959;SDS011;40860;51.710;8.736;2023-02-28T19:01:50;7.60;;;4.85;;
54959;SDS011;40860;51.710;8.736;2023-02-28T19:05:54;7.30;;;5.38;;
54959;SDS011;40860;51.710;8.736;2023-02-28T19:09:58;10.30;;;6.93;;
54959;SDS011;40860;51.710;8.736;2023-02-28T19:14:01;11.07;;;7.25;;
54959;SDS011;40860;51.710;8.736;2023-02-28T19:18:04;7.88;;;6.72;;
54959;SDS011;40860;51.710;8.736;2023-02-28T19:22:08;9.27;;;6.82;;
54959;SDS011;40860;51.710;8.736;2023-02-28T19:26:13;11.20;;;8.40;;
54959;SDS011;40860;51.710;8.736;2023-02-28T19:30:16;29.63;;;15.38;;
54959;SDS011;40860;51.710;8.736;2023-02-28T19:34:27;21.58;;;12.10;;
54959;SDS011;40860;51.710;8.736;2023-02-28T19:38:31;21.02;;;10.10;;
54959;SDS011;40860;51.710;8.736;2023-02-28T19:42:34;13.57;;;8.57;;
54959;SDS011;40860;51.710;8.736;2023-02-28T19:46:37;12.77;;;8.18;;
54959;SDS011;40860;51.710;8.736;2023-02-28T19:50:40;10.75;;;8.38;;
54959;SDS011;40860;51.710;8.736;2023-02-28T19:54:45;12.13;;;9.20;;
54959;SDS011;40860;51.710;8.736;2023-02-28T19:58:48;11.63;;;9.25;;
54959;SDS011;40860;51.710;8.736;2023-02-28T20:02:51;11.98;;;8.60;;
54959;SDS011;40860;51.710;8.736;2023-02-28T20:06:54;14.88;;;8.30;;
54959;SDS011;40860;51.710;8.736;2023-02-28T20:11:02;10.13;;;7.97;;
54959;SDS011;40860;51.710;8.736;2023-02-28T20:15:07;13.95;;;7.28;;
54959;SDS011;40860;51.710;8.736;2023-02-28T20:19:12;10.05;;;7.53;;
54959;SDS011;40860;51.710;8.736;2023-02-28T20:23:14;9.60;;;7.15;;
54959;SDS011;40860;51.710;8.736;2023-02-28T20:27:18;10.40;;;6.88;;
54959;SDS011;40860;51.710;8.736;2023-02-28T20:31:22;9.57;;;7.15;;
54959;SDS011;40860;51.710;8.736;2023-02-28T20:35:26;11.15;;;6.97;;
54959;SDS011;40860;51.710;8.736;2023-02-28T20:39:29;9.50;;;7.65;;
54959;SDS011;40860;51.710;8.736;2023-02-28T20:43:33;11.68;;;7.53;;
54959;SDS011;40860;51.710;8.736;2023-02-28T20:47:36;11.90;;;8.38;;
54959;SDS011;40860;51.710;8.736;2023-02-28T20:51:39;15.65;;;9.70;;
54959;SDS011;40860;51.710;8.736;2023-02-28T20:55:52;12.55;;;8.93;;
54959;SDS011;40860;51.710;8.736;2023-02-28T20:59:57;11.77;;;7.32;;
54959;SDS011;40860;51.710;8.736;2023-02-28T21:04:04;9.77;;;7.10;;
54959;SDS011;40860;51.710;8.736;2023-02-28T21:08:08;11.27;;;7.65;;
54959;SDS011;40860;51.710;8.736;2023-02-28T21:12:10;12.95;;;8.38;;
54959;SDS011;40860;51.710;8.736;2023-02-28T21:16:15;12.10;;;8.38;;
54959;SDS011;40860;51.710;8.736;2023-02-28T21:20:21;10.75;;;8.30;;
54959;SDS011;40860;51.710;8.736;2023-02-28T21:24:24;11.27;;;8.18;;
54959;SDS011;40860;51.710;8.736;2023-02-28T21:28:36;13.68;;;8.80;;
54959;SDS011;40860;51.710;8.736;2023-02-28T21:32:45;13.57;;;8.23;;
54959;SDS011;40860;51.710;8.736;2023-02-28T21:36:49;10.73;;;7.88;;
54959;SDS011;40860;51.710;8.736;2023-02-28T21:40:53;9.30;;;7.30;;
54959;SDS011;40860;51.710;8.736;2023-02-28T21:44:56;14.25;;;8.35;;
54959;SDS011;40860;51.710;8.736;2023-02-28T21:49:03;10.23;;;7.22;;
54959;SDS011;40860;51.710;8.736;2023-02-28T21:53:05;14.65;;;8.63;;
54959;SDS011;40860;51.710;8.736;2023-02-28T21:57:10;14.48;;;10.52;;
54959;SDS011;40860;51.710;8.736;2023-02-28T22:01:15;13.70;;;10.32;;
54959;SDS011;40860;51.710;8.736;2023-02-28T22:05:21;24.08;;;14.15;;
54959;SDS011;40860;51.710;8.736;2023-02-28T22:09:25;15.02;;;10.20;;
54959;SDS011;40860;51.710;8.736;2023-02-28T22:13:28;15.40;;;10.75;;
54959;SDS011;40860;51.710;8.736;2023-02-28T22:17:31;12.50;;;9.07;;
54959;SDS011;40860;51.710;8.736;2023-02-28T22:21:36;9.43;;;7.38;;
54959;SDS011;40860;51.710;8.736;2023-02-28T22:25:42;9.82;;;7.53;;
54959;SDS011;40860;51.710;8.736;2023-02-28T22:29:46;10.65;;;7.20;;
54959;SDS011;40860;51.710;8.736;2023-02-28T22:33:50;10.07;;;7.18;;
54959;SDS011;40860;51.710;8.736;2023-02-28T22:37:56;8.60;;;6.32;;
54959;SDS011;40860;51.710;8.736;2023-02-28T22:42:03;8.45;;;6.80;;
54959;SDS011;40860;51.710;8.736;2023-02-28T22:46:07;11.13;;;7.07;;
54959;SDS011;40860;51.710;8.736;2023-02-28T22:50:11;9.23;;;7.20;;
54959;SDS011;40860;51.710;8.736;2023-02-28T22:54:15;11.38;;;7.00;;
54959;SDS011;40860;51.710;8.736;2023-02-28T22:58:18;10.65;;;7.07;;
54959;SDS011;40860;51.710;8.736;2023-02-28T23:02:21;10.57;;;7.38;;
54959;SDS011;40860;51.710;8.736;2023-02-28T23:06:25;8.10;;;6.35;;
54959;SDS011;40860;51.710;8.736;2023-02-28T23:10:31;11.07;;;6.75;;
54959;SDS011;40860;51.710;8.736;2023-02-28T23:14:34;8.27;;;6.95;;
54959;SDS011;40860;51.710;8.736;2023-02-28T23:18:46;8.90;;;6.80;;
54959;SDS011;40860;51.710;8.736;2023-02-28T23:22:48;9.98;;;6.65;;
54959;SDS011;40860;51.710;8.736;2023-02-28T23:26:53;8.60;;;7.10;;
54959;SDS011;40860;51.710;8.736;2023-02-28T23:30:59;11.32;;;7.22;;
54959;SDS011;40860;51.710;8.736;2023-02-28T23:35:04;9.90;;;7.10;;
54959;SDS011;40860;51.710;8.736;2023-02-28T23:39:08;12.50;;;7.63;;
54959;SDS011;40860;51.710;8.736;2023-02-28T23:43:18;9.90;;;6.95;;
54959;SDS011;40860;51.710;8.736;2023-02-28T23:47:20;9.68;;;7.40;;
54959;SDS011;40860;51.710;8.736;2023-02-28T23:51:24;9.68;;;7.13;;
54959;SDS011;40860;51.710;8.736;2023-02-28T23:55:26;10.73;;;7.20;;
54959;SDS011;40860;51.710;8.736;2023-02-28T23:59:30;9.88;;;7.00;;
